sensor_id;sensor_type;location;lat;lon;timestamp;pressure;altitude;pressure_sealevel;temperature;humidity
81608;BME280;71022;48.122;11.576;2024-01-30T00:01:56;96973.03;;;2.64;70.59
81608;BME280;71022;48.122;11.576;2024-01-30T00:04:24;96975.47;;;2.56;70.87
81608;BME280;71022;48.122;11.576;2024-01-30T00:06:51;96969.19;;;2.45;70.89
81608;BME280;71022;48.122;11.576;2024-01-30T00:09:20;96968.94;;;2.47;70.73
81608;BME280;71022;48.122;11.576;2024-01-30T00:11:47;96970.06;;;2.51;71.01
81608;BME280;71022;48.122;11.576;2024-01-30T00:14:14;96968.66;;;2.48;70.82
81608;BME280;71022;48.122;11.576;2024-01-30T00:16:41;96980.06;;;2.50;70.79
81608;BME280;71022;48.122;11.576;2024-01-30T00:19:09;96976.03;;;2.73;70.47
81608;BME280;71022;48.122;11.576;2024-01-30T00:21:36;96973.56;;;2.66;70.11
81608;BME280;71022;48.122;11.576;2024-01-30T00:24:03;96975.72;;;2.49;70.74
81608;BME280;71022;48.122;11.576;2024-01-30T00:26:31;96973.00;;;2.44;70.91
81608;BME280;71022;48.122;11.576;2024-01-30T00:28:58;96977.88;;;2.42;71.28
81608;BME280;71022;48.122;11.576;2024-01-30T00:31:25;96978.16;;;2.41;71.30
81608;BME280;71022;48.122;11.576;2024-01-30T00:33:53;96977.91;;;2.52;70.89
81608;BME280;71022;48.122;11.576;2024-01-30T00:36:20;96975.16;;;2.37;70.78
81608;BME280;71022;48.122;11.576;2024-01-30T00:38:47;96979.50;;;2.38;71.15
81608;BME280;71022;48.122;11.576;2024-01-30T00:41:17;96974.63;;;2.40;71.12
81608;BME280;71022;48.122;11.576;2024-01-30T00:43:44;96973.84;;;2.55;71.08
81608;BME280;71022;48.122;11.576;2024-01-30T00:46:11;96967.59;;;2.49;70.82
81608;BME280;71022;48.122;11.576;2024-01-30T00:48:39;96979.50;;;2.43;71.02
81608;BME280;71022;48.122;11.576;2024-01-30T00:51:06;96970.28;;;2.34;71.18
81608;BME280;71022;48.122;11.576;2024-01-30T00:53:33;96977.88;;;2.42;71.38
81608;BME280;71022;48.122;11.576;2024-01-30T00:56:00;96968.91;;;2.32;71.31
81608;BME280;71022;48.122;11.576;2024-01-30T00:58:28;96974.34;;;2.27;71.41
81608;BME280;71022;48.122;11.576;2024-01-30T01:00:55;96969.69;;;2.22;71.91
81608;BME280;71022;48.122;11.576;2024-01-30T01:03:22;96972.41;;;2.22;71.44
81608;BME280;71022;48.122;11.576;2024-01-30T01:05:49;96975.09;;;2.17;71.61
81608;BME280;71022;48.122;11.576;2024-01-30T01:08:17;96970.75;;;2.16;71.75
81608;BME280;71022;48.122;11.576;2024-01-30T01:10:44;96974.75;;;1.98;72.54
81608;BME280;71022;48.122;11.576;2024-01-30T01:13:12;96974.34;;;2.27;71.43
81608;BME280;71022;48.122;11.576;2024-01-30T01:15:39;96971.06;;;2.24;71.31
81608;BME280;71022;48.122;11.576;2024-01-30T01:18:06;96974.56;;;2.15;71.56
81608;BME280;71022;48.122;11.576;2024-01-30T01:20:33;96979.13;;;2.09;71.62
81608;BME280;71022;48.122;11.576;2024-01-30T01:23:01;96972.94;;;2.19;71.32
81608;BME280;71022;48.122;11.576;2024-01-30T01:25:28;96977.00;;;2.21;71.25
81608;BME280;71022;48.122;11.576;2024-01-30T01:27:55;96969.16;;;2.30;71.02
81608;BME280;71022;48.122;11.576;2024-01-30T01:30:22;96968.09;;;2.26;71.03
81608;BME280;71022;48.122;11.576;2024-01-30T01:32:50;96969.16;;;2.20;71.22
81608;BME280;71022;48.122;11.576;2024-01-30T01:35:22;96972.66;;;2.15;71.07
81608;BME280;71022;48.122;11.576;2024-01-30T01:37:53;96975.66;;;2.19;71.02
81608;BME280;71022;48.122;11.576;2024-01-30T01:40:23;96974.69;;;2.65;69.77
81608;BME280;71022;48.122;11.576;2024-01-30T01:42:52;96973.00;;;2.49;69.78
81608;BME280;71022;48.122;11.576;2024-01-30T01:45:20;96973.22;;;2.28;70.43
81608;BME280;71022;48.122;11.576;2024-01-30T01:47:51;96967.53;;;2.19;70.73
81608;BME280;71022;48.122;11.576;2024-01-30T01:50:20;96965.63;;;2.14;71.10
81608;BME280;71022;48.122;11.576;2024-01-30T01:52:48;96962.03;;;1.99;71.87
81608;BME280;71022;48.122;11.576;2024-01-30T01:55:16;96970.63;;;1.76;72.24
81608;BME280;71022;48.122;11.576;2024-01-30T01:57:49;96962.50;;;1.76;72.51
81608;BME280;71022;48.122;11.576;2024-01-30T02:00:17;96965.81;;;1.98;71.49
81608;BME280;71022;48.122;11.576;2024-01-30T02:02:46;96961.22;;;2.03;71.14
81608;BME280;71022;48.122;11.576;2024-01-30T02:05:15;96964.22;;;1.97;71.38
81608;BME280;71022;48.122;11.576;2024-01-30T02:07:43;96971.97;;;1.78;72.13
81608;BME280;71022;48.122;11.576;2024-01-30T02:10:11;96966.28;;;1.75;71.98
81608;BME280;71022;48.122;11.576;2024-01-30T02:12:38;96973.84;;;1.73;72.54
81608;BME280;71022;48.122;11.576;2024-01-30T02:15:06;96969.50;;;1.66;72.82
81608;BME280;71022;48.122;11.576;2024-01-30T02:17:34;96967.31;;;1.68;72.45
81608;BME280;71022;48.122;11.576;2024-01-30T02:20:02;96965.44;;;1.74;72.40
81608;BME280;71022;48.122;11.576;2024-01-30T02:22:32;96967.41;;;1.84;72.21
81608;BME280;71022;48.122;11.576;2024-01-30T02:25:01;96972.22;;;1.72;72.29
81608;BME280;71022;48.122;11.576;2024-01-30T02:27:28;96968.22;;;1.84;71.92
81608;BME280;71022;48.122;11.576;2024-01-30T02:29:55;96973.88;;;1.83;71.96
81608;BME280;71022;48.122;11.576;2024-01-30T02:32:23;96971.22;;;1.88;71.78
81608;BME280;71022;48.122;11.576;2024-01-30T02:34:50;96965.28;;;2.01;71.22
81608;BME280;71022;48.122;11.576;2024-01-30T02:37:17;96972.28;;;1.92;71.64
81608;BME280;71022;48.122;11.576;2024-01-30T02:39:45;96969.63;;;1.97;71.31
81608;BME280;71022;48.122;11.576;2024-01-30T02:42:12;96963.88;;;1.83;72.13
81608;BME280;71022;48.122;11.576;2024-01-30T02:44:39;96976.25;;;1.64;72.32
81608;BME280;71022;48.122;11.576;2024-01-30T02:47:07;96973.03;;;1.72;72.73
81608;BME280;71022;48.122;11.576;2024-01-30T02:49:34;96971.16;;;1.73;72.65
81608;BME280;71022;48.122;11.576;2024-01-30T02:52:02;96973.28;;;1.71;72.17
81608;BME280;71022;48.122;11.576;2024-01-30T02:54:30;96968.97;;;1.70;72.08
81608;BME280;71022;48.122;11.576;2024-01-30T02:56:57;96960.41;;;1.93;71.94
81608;BME280;71022;48.122;11.576;2024-01-30T02:59:25;96958.22;;;1.90;71.89
81608;BME280;71022;48.122;11.576;2024-01-30T03:01:52;96951.16;;;1.89;71.70
81608;BME280;71022;48.122;11.576;2024-01-30T03:04:19;96948.50;;;1.94;71.78
81608;BME280;71022;48.122;11.576;2024-01-30T03:06:46;96947.31;;;1.80;72.28
81608;BME280;71022;48.122;11.576;2024-01-30T03:09:16;96944.84;;;1.68;72.37
81608;BME280;71022;48.122;11.576;2024-01-30T03:11:43;96946.22;;;1.71;72.54
81608;BME280;71022;48.122;11.576;2024-01-30T03:14:10;96940.31;;;1.89;71.85
81608;BME280;71022;48.122;11.576;2024-01-30T03:16:38;96940.84;;;1.76;72.18
81608;BME280;71022;48.122;11.576;2024-01-30T03:19:06;96947.84;;;1.77;72.42
81608;BME280;71022;48.122;11.576;2024-01-30T03:21:36;96941.06;;;1.69;72.58
81608;BME280;71022;48.122;11.576;2024-01-30T03:24:03;96954.00;;;1.57;72.97
81608;BME280;71022;48.122;11.576;2024-01-30T03:26:30;96958.59;;;1.56;73.07
81608;BME280;71022;48.122;11.576;2024-01-30T03:28:58;96946.91;;;1.46;73.43
81608;BME280;71022;48.122;11.576;2024-01-30T03:31:25;96945.88;;;1.52;73.54
81608;BME280;71022;48.122;11.576;2024-01-30T03:33:53;96939.66;;;1.61;72.89
81608;BME280;71022;48.122;11.576;2024-01-30T03:36:20;96951.03;;;1.58;73.03
81608;BME280;71022;48.122;11.576;2024-01-30T03:38:47;96941.84;;;1.64;72.52
81608;BME280;71022;48.122;11.576;2024-01-30T03:41:15;96941.31;;;1.62;72.64
81608;BME280;71022;48.122;11.576;2024-01-30T03:43:42;96941.00;;;1.54;72.66
81608;BME280;71022;48.122;11.576;2024-01-30T03:46:11;96939.03;;;1.44;73.29
81608;BME280;71022;48.122;11.576;2024-01-30T03:48:39;96939.31;;;1.43;73.18
81608;BME280;71022;48.122;11.576;2024-01-30T03:51:07;96940.63;;;1.35;73.62
81608;BME280;71022;48.122;11.576;2024-01-30T03:53:34;96942.31;;;1.46;73.38
81608;BME280;71022;48.122;11.576;2024-01-30T03:56:02;96928.56;;;1.58;72.81
81608;BME280;71022;48.122;11.576;2024-01-30T03:58:30;96926.41;;;1.55;72.53
81608;BME280;71022;48.122;11.576;2024-01-30T04:00:57;96930.78;;;1.66;72.29
81608;BME280;71022;48.122;11.576;2024-01-30T04:03:24;96935.06;;;1.62;72.18
81608;BME280;71022;48.122;11.576;2024-01-30T04:05:52;96938.28;;;1.49;73.09
81608;BME280;71022;48.122;11.576;2024-01-30T04:08:20;96934.25;;;1.61;72.41
81608;BME280;71022;48.122;11.576;2024-01-30T04:10:48;96939.97;;;1.65;72.47
81608;BME280;71022;48.122;11.576;2024-01-30T04:13:15;96934.25;;;1.61;72.40
81608;BME280;71022;48.122;11.576;2024-01-30T04:15:42;96931.81;;;1.60;72.92
81608;BME280;71022;48.122;11.576;2024-01-30T04:18:09;96936.94;;;1.56;72.35
81608;BME280;71022;48.122;11.576;2024-01-30T04:20:37;96938.00;;;1.50;73.17
81608;BME280;71022;48.122;11.576;2024-01-30T04:23:04;96940.97;;;1.49;72.69
81608;BME280;71022;48.122;11.576;2024-01-30T04:25:31;96942.06;;;1.53;72.63
81608;BME280;71022;48.122;11.576;2024-01-30T04:27:58;96930.16;;;1.49;73.11
81608;BME280;71022;48.122;11.576;2024-01-30T04:30:26;96940.66;;;1.40;72.96
81608;BME280;71022;48.122;11.576;2024-01-30T04:32:53;96937.38;;;1.33;73.59
81608;BME280;71022;48.122;11.576;2024-01-30T04:35:20;96943.38;;;1.40;73.52
81608;BME280;71022;48.122;11.576;2024-01-30T04:37:52;96944.47;;;1.44;72.98
81608;BME280;71022;48.122;11.576;2024-01-30T04:40:21;96940.63;;;1.35;73.08
81608;BME280;71022;48.122;11.576;2024-01-30T04:42:48;96938.47;;;1.37;73.35
81608;BME280;71022;48.122;11.576;2024-01-30T04:45:16;96934.75;;;1.48;72.65
81608;BME280;71022;48.122;11.576;2024-01-30T04:47:43;96944.75;;;1.48;72.98
81608;BME280;71022;48.122;11.576;2024-01-30T04:50:11;96938.81;;;1.51;72.93
81608;BME280;71022;48.122;11.576;2024-01-30T04:52:38;96937.47;;;1.53;72.99
81608;BME280;71022;48.122;11.576;2024-01-30T04:55:06;96938.28;;;1.49;73.38
81608;BME280;71022;48.122;11.576;2024-01-30T04:57:33;96938.22;;;1.44;73.17
81608;BME280;71022;48.122;11.576;2024-01-30T05:00:00;96936.84;;;1.36;73.39
81608;BME280;71022;48.122;11.576;2024-01-30T05:02:28;96934.69;;;1.38;73.80
81608;BME280;71022;48.122;11.576;2024-01-30T05:04:55;96939.03;;;1.44;73.26
81608;BME280;71022;48.122;11.576;2024-01-30T05:07:22;96942.59;;;1.50;73.13
81608;BME280;71022;48.122;11.576;2024-01-30T05:09:51;96943.16;;;1.52;72.68
81608;BME280;71022;48.122;11.576;2024-01-30T05:12:21;96944.53;;;1.59;72.87
81608;BME280;71022;48.122;11.576;2024-01-30T05:14:48;96952.06;;;1.52;72.66
81608;BME280;71022;48.122;11.576;2024-01-30T05:17:15;96945.88;;;1.52;72.48
81608;BME280;71022;48.122;11.576;2024-01-30T05:19:43;96953.16;;;1.51;72.27
81608;BME280;71022;48.122;11.576;2024-01-30T05:22:11;96953.16;;;1.46;72.22
81608;BME280;71022;48.122;11.576;2024-01-30T05:24:42;96948.28;;;1.53;72.15
81608;BME280;71022;48.122;11.576;2024-01-30T05:27:10;96945.06;;;1.61;71.93
81608;BME280;71022;48.122;11.576;2024-01-30T05:29:37;96948.59;;;1.62;71.82
81608;BME280;71022;48.122;11.576;2024-01-30T05:32:04;96950.50;;;1.61;71.66
81608;BME280;71022;48.122;11.576;2024-01-30T05:34:35;96946.13;;;1.55;72.49
81608;BME280;71022;48.122;11.576;2024-01-30T05:37:03;96944.03;;;1.67;71.82
81608;BME280;71022;48.122;11.576;2024-01-30T05:39:30;96957.53;;;1.57;72.30
81608;BME280;71022;48.122;11.576;2024-01-30T05:42:00;96949.94;;;1.54;72.51
81608;BME280;71022;48.122;11.576;2024-01-30T05:44:27;96962.09;;;1.52;72.12
81608;BME280;71022;48.122;11.576;2024-01-30T05:46:54;96955.06;;;1.51;72.35
81608;BME280;71022;48.122;11.576;2024-01-30T05:49:21;96960.25;;;1.57;72.44
81608;BME280;71022;48.122;11.576;2024-01-30T05:51:49;96963.47;;;1.59;72.60
81608;BME280;71022;48.122;11.576;2024-01-30T05:54:16;96962.97;;;1.62;71.87
81608;BME280;71022;48.122;11.576;2024-01-30T05:56:44;96967.03;;;1.65;72.04
81608;BME280;71022;48.122;11.576;2024-01-30T05:59:11;96972.69;;;1.58;72.45
81608;BME280;71022;48.122;11.576;2024-01-30T06:01:48;96972.94;;;1.57;72.26
81608;BME280;71022;48.122;11.576;2024-01-30T06:04:16;96963.47;;;1.59;72.24
81608;BME280;71022;48.122;11.576;2024-01-30T06:06:43;96967.31;;;1.68;72.04
81608;BME280;71022;48.122;11.576;2024-01-30T06:09:10;96970.56;;;1.65;71.59
81608;BME280;71022;48.122;11.576;2024-01-30T06:11:39;96970.53;;;1.60;72.04
81608;BME280;71022;48.122;11.576;2024-01-30T06:14:07;96973.78;;;1.62;71.76
81608;BME280;71022;48.122;11.576;2024-01-30T06:16:34;96967.56;;;1.62;71.83
81608;BME280;71022;48.122;11.576;2024-01-30T06:19:01;96972.75;;;1.68;71.92
81608;BME280;71022;48.122;11.576;2024-01-30T06:21:28;96974.38;;;1.70;71.50
81608;BME280;71022;48.122;11.576;2024-01-30T06:23:56;96973.25;;;1.65;71.59
81608;BME280;71022;48.122;11.576;2024-01-30T06:26:23;96975.13;;;1.60;71.80
81608;BME280;71022;48.122;11.576;2024-01-30T06:28:50;96976.50;;;1.62;71.68
81608;BME280;71022;48.122;11.576;2024-01-30T06:31:18;96978.44;;;1.72;71.47
81608;BME280;71022;48.122;11.576;2024-01-30T06:33:49;96967.94;;;1.81;70.94
81608;BME280;71022;48.122;11.576;2024-01-30T06:36:16;96967.69;;;1.82;71.02
81608;BME280;71022;48.122;11.576;2024-01-30T06:38:43;96967.69;;;1.82;70.87
81608;BME280;71022;48.122;11.576;2024-01-30T06:41:11;96981.44;;;1.76;70.96
81608;BME280;71022;48.122;11.576;2024-01-30T06:43:38;96986.28;;;1.74;71.07
81608;BME280;71022;48.122;11.576;2024-01-30T06:46:06;96978.69;;;1.71;71.42
81608;BME280;71022;48.122;11.576;2024-01-30T06:48:33;96986.88;;;1.81;71.35
81608;BME280;71022;48.122;11.576;2024-01-30T06:51:01;96995.00;;;1.76;71.09
81608;BME280;71022;48.122;11.576;2024-01-30T06:53:28;96989.34;;;1.82;71.25
81608;BME280;71022;48.122;11.576;2024-01-30T06:55:55;96988.78;;;1.85;71.12
81608;BME280;71022;48.122;11.576;2024-01-30T06:58:22;97000.97;;;1.83;71.43
81608;BME280;71022;48.122;11.576;2024-01-30T07:00:49;96990.94;;;1.83;71.20
81608;BME280;71022;48.122;11.576;2024-01-30T07:03:17;96986.34;;;1.84;71.48
81608;BME280;71022;48.122;11.576;2024-01-30T07:05:44;96989.59;;;1.86;71.27
81608;BME280;71022;48.122;11.576;2024-01-30T07:08:11;96987.19;;;1.94;71.29
81608;BME280;71022;48.122;11.576;2024-01-30T07:10:39;96989.13;;;1.94;71.28
81608;BME280;71022;48.122;11.576;2024-01-30T07:13:06;96985.88;;;1.97;71.23
81608;BME280;71022;48.122;11.576;2024-01-30T07:15:33;96986.13;;;2.00;70.96
81608;BME280;71022;48.122;11.576;2024-01-30T07:18:00;96986.97;;;2.01;71.18
81608;BME280;71022;48.122;11.576;2024-01-30T07:20:28;96983.19;;;2.02;71.07
81608;BME280;71022;48.122;11.576;2024-01-30T07:22:58;96995.16;;;2.16;71.36
81608;BME280;71022;48.122;11.576;2024-01-30T07:25:25;96998.47;;;2.38;70.34
81608;BME280;71022;48.122;11.576;2024-01-30T07:27:54;96996.00;;;2.27;69.64
81608;BME280;71022;48.122;11.576;2024-01-30T07:30:21;96993.56;;;2.30;70.15
81608;BME280;71022;48.122;11.576;2024-01-30T07:32:49;96998.44;;;2.33;70.17
81608;BME280;71022;48.122;11.576;2024-01-30T07:35:16;96995.78;;;2.38;70.40
81608;BME280;71022;48.122;11.576;2024-01-30T07:37:43;97002.78;;;2.39;69.87
81608;BME280;71022;48.122;11.576;2024-01-30T07:40:11;96993.59;;;2.35;70.32
81608;BME280;71022;48.122;11.576;2024-01-30T07:42:38;97004.97;;;2.42;69.90
81608;BME280;71022;48.122;11.576;2024-01-30T07:45:06;97007.69;;;2.42;69.82
81608;BME280;71022;48.122;11.576;2024-01-30T07:47:33;97005.53;;;2.49;69.61
81608;BME280;71022;48.122;11.576;2024-01-30T07:50:00;96997.94;;;2.51;69.53
81608;BME280;71022;48.122;11.576;2024-01-30T07:52:28;97004.47;;;2.55;68.96
81608;BME280;71022;48.122;11.576;2024-01-30T07:54:55;97005.03;;;2.62;68.48
81608;BME280;71022;48.122;11.576;2024-01-30T07:57:23;97011.81;;;2.70;68.04
81608;BME280;71022;48.122;11.576;2024-01-30T07:59:50;97010.47;;;2.72;67.61
81608;BME280;71022;48.122;11.576;2024-01-30T08:02:17;97010.50;;;2.77;67.47
81608;BME280;71022;48.122;11.576;2024-01-30T08:04:44;97007.25;;;2.91;67.92
81608;BME280;71022;48.122;11.576;2024-01-30T08:07:16;97004.00;;;2.84;67.47
81608;BME280;71022;48.122;11.576;2024-01-30T08:09:44;97009.94;;;2.86;67.54
81608;BME280;71022;48.122;11.576;2024-01-30T08:12:12;97007.50;;;2.84;67.74
81608;BME280;71022;48.122;11.576;2024-01-30T08:14:40;97020.25;;;2.99;67.27
81608;BME280;71022;48.122;11.576;2024-01-30T08:17:08;97020.84;;;3.16;66.62
81608;BME280;71022;48.122;11.576;2024-01-30T08:19:35;97016.22;;;3.31;66.40
81608;BME280;71022;48.122;11.576;2024-01-30T08:22:03;97017.53;;;3.69;65.01
81608;BME280;71022;48.122;11.576;2024-01-30T08:24:30;97012.47;;;4.17;63.68
81608;BME280;71022;48.122;11.576;2024-01-30T08:26:57;97009.50;;;4.67;61.84
81608;BME280;71022;48.122;11.576;2024-01-30T08:29:25;97011.34;;;5.16;60.94
81608;BME280;71022;48.122;11.576;2024-01-30T08:31:52;97006.88;;;5.58;58.70
81608;BME280;71022;48.122;11.576;2024-01-30T08:34:20;97013.88;;;5.98;58.35
81608;BME280;71022;48.122;11.576;2024-01-30T08:36:48;97007.03;;;6.25;56.79
81608;BME280;71022;48.122;11.576;2024-01-30T08:39:15;97002.59;;;6.52;56.28
81608;BME280;71022;48.122;11.576;2024-01-30T08:41:42;97008.00;;;6.76;55.46
81608;BME280;71022;48.122;11.576;2024-01-30T08:44:10;97004.00;;;6.87;54.94
81608;BME280;71022;48.122;11.576;2024-01-30T08:46:38;97001.00;;;7.07;54.63
81608;BME280;71022;48.122;11.576;2024-01-30T08:49:05;97009.38;;;7.30;53.28
81608;BME280;71022;48.122;11.576;2024-01-30T08:51:33;97003.66;;;7.45;53.03
81608;BME280;71022;48.122;11.576;2024-01-30T08:54:02;97009.63;;;7.47;53.15
81608;BME280;71022;48.122;11.576;2024-01-30T08:56:29;97007.75;;;7.61;52.96
81608;BME280;71022;48.122;11.576;2024-01-30T08:58:57;97008.50;;;7.48;52.01
81608;BME280;71022;48.122;11.576;2024-01-30T09:01:25;97008.25;;;7.63;51.88
81608;BME280;71022;48.122;11.576;2024-01-30T09:03:52;97014.50;;;7.82;51.50
81608;BME280;71022;48.122;11.576;2024-01-30T09:06:19;97012.78;;;8.13;50.62
81608;BME280;71022;48.122;11.576;2024-01-30T09:08:47;97012.47;;;8.01;49.71
81608;BME280;71022;48.122;11.576;2024-01-30T09:11:15;97021.50;;;8.15;49.88
81608;BME280;71022;48.122;11.576;2024-01-30T09:13:42;97019.38;;;8.12;49.16
81608;BME280;71022;48.122;11.576;2024-01-30T09:16:10;97016.53;;;8.04;49.58
81608;BME280;71022;48.122;11.576;2024-01-30T09:18:38;97020.13;;;8.31;49.81
81608;BME280;71022;48.122;11.576;2024-01-30T09:21:05;97025.91;;;8.44;49.11
81608;BME280;71022;48.122;11.576;2024-01-30T09:23:32;97025.81;;;8.49;49.65
81608;BME280;71022;48.122;11.576;2024-01-30T09:26:00;97027.03;;;8.56;48.97
81608;BME280;71022;48.122;11.576;2024-01-30T09:28:27;97020.94;;;8.59;49.13
81608;BME280;71022;48.122;11.576;2024-01-30T09:30:55;97030.06;;;8.55;48.65
81608;BME280;71022;48.122;11.576;2024-01-30T09:33:22;97036.44;;;8.37;48.42
81608;BME280;71022;48.122;11.576;2024-01-30T09:35:50;97029.75;;;8.43;48.42
81608;BME280;71022;48.122;11.576;2024-01-30T09:38:18;97029.34;;;8.49;48.72
81608;BME280;71022;48.122;11.576;2024-01-30T09:40:52;97034.84;;;8.63;47.93
81608;BME280;71022;48.122;11.576;2024-01-30T09:43:22;97029.38;;;8.63;47.89
81608;BME280;71022;48.122;11.576;2024-01-30T09:45:53;97038.06;;;8.65;46.42
81608;BME280;71022;48.122;11.576;2024-01-30T09:48:21;97025.91;;;8.71;46.79
81608;BME280;71022;48.122;11.576;2024-01-30T09:50:49;97033.38;;;8.79;46.67
81608;BME280;71022;48.122;11.576;2024-01-30T09:53:16;97035.75;;;8.72;45.95
81608;BME280;71022;48.122;11.576;2024-01-30T09:55:45;97034.00;;;8.76;46.31
81608;BME280;71022;48.122;11.576;2024-01-30T09:58:13;97037.84;;;8.88;46.65
81608;BME280;71022;48.122;11.576;2024-01-30T10:00:40;97035.50;;;8.96;46.79
81608;BME280;71022;48.122;11.576;2024-01-30T10:03:08;97033.81;;;9.08;46.00
81608;BME280;71022;48.122;11.576;2024-01-30T10:05:36;97024.88;;;9.16;44.79
81608;BME280;71022;48.122;11.576;2024-01-30T10:08:06;97031.69;;;9.19;44.61
81608;BME280;71022;48.122;11.576;2024-01-30T10:10:37;97036.00;;;9.33;44.89
81608;BME280;71022;48.122;11.576;2024-01-30T10:13:04;97031.63;;;9.32;43.87
81608;BME280;71022;48.122;11.576;2024-01-30T10:15:32;97030.63;;;9.28;42.48
81608;BME280;71022;48.122;11.576;2024-01-30T10:18:02;97026.25;;;9.27;42.24
81608;BME280;71022;48.122;11.576;2024-01-30T10:20:29;97022.03;;;9.21;42.88
81608;BME280;71022;48.122;11.576;2024-01-30T10:22:57;97021.53;;;9.19;42.38
81608;BME280;71022;48.122;11.576;2024-01-30T10:25:25;97017.34;;;9.22;42.81
81608;BME280;71022;48.122;11.576;2024-01-30T10:27:53;97023.66;;;9.22;42.35
81608;BME280;71022;48.122;11.576;2024-01-30T10:30:24;97018.72;;;9.33;43.31
81608;BME280;71022;48.122;11.576;2024-01-30T10:32:51;97007.81;;;9.41;42.09
81608;BME280;71022;48.122;11.576;2024-01-30T10:35:18;97015.75;;;9.43;42.05
81608;BME280;71022;48.122;11.576;2024-01-30T10:37:49;97007.34;;;9.39;42.42
81608;BME280;71022;48.122;11.576;2024-01-30T10:40:16;97006.72;;;9.42;42.29
81608;BME280;71022;48.122;11.576;2024-01-30T10:42:46;97002.72;;;9.49;44.14
81608;BME280;71022;48.122;11.576;2024-01-30T10:45:14;96992.75;;;9.53;42.88
81608;BME280;71022;48.122;11.576;2024-01-30T10:47:49;96997.00;;;9.59;43.14
81608;BME280;71022;48.122;11.576;2024-01-30T10:50:17;96991.84;;;9.66;42.76
81608;BME280;71022;48.122;11.576;2024-01-30T10:52:45;96987.88;;;9.72;42.09
81608;BME280;71022;48.122;11.576;2024-01-30T10:55:13;96984.50;;;9.75;42.26
81608;BME280;71022;48.122;11.576;2024-01-30T10:57:42;96980.19;;;9.82;41.78
81608;BME280;71022;48.122;11.576;2024-01-30T11:00:12;96975.69;;;9.86;42.04
81608;BME280;71022;48.122;11.576;2024-01-30T11:02:41;96975.41;;;9.96;42.17
81608;BME280;71022;48.122;11.576;2024-01-30T11:05:10;96972.22;;;10.03;41.32
81608;BME280;71022;48.122;11.576;2024-01-30T11:07:39;96974.97;;;10.03;40.83
81608;BME280;71022;48.122;11.576;2024-01-30T11:10:12;96968.97;;;10.01;40.44
81608;BME280;71022;48.122;11.576;2024-01-30T11:12:42;96963.34;;;10.06;40.19
81608;BME280;71022;48.122;11.576;2024-01-30T11:15:15;96964.53;;;10.62;44.86
81608;BME280;71022;48.122;11.576;2024-01-30T11:20:19;96957.75;;;10.68;39.58
81608;BME280;71022;48.122;11.576;2024-01-30T11:22:49;96955.66;;;10.73;38.65
81608;BME280;71022;48.122;11.576;2024-01-30T11:25:18;96955.47;;;10.70;38.75
81608;BME280;71022;48.122;11.576;2024-01-30T11:27:47;96947.09;;;10.75;38.80
81608;BME280;71022;48.122;11.576;2024-01-30T11:33:09;96938.22;;;10.86;38.80
81608;BME280;71022;48.122;11.576;2024-01-30T11:35:40;96931.59;;;10.96;38.52
81608;BME280;71022;48.122;11.576;2024-01-30T11:38:13;96936.75;;;11.06;38.85
81608;BME280;71022;48.122;11.576;2024-01-30T11:40:40;96931.59;;;11.13;37.65
81608;BME280;71022;48.122;11.576;2024-01-30T11:43:08;96939.19;;;11.25;37.98
81608;BME280;71022;48.122;11.576;2024-01-30T11:45:36;96935.16;;;11.22;37.08
81608;BME280;71022;48.122;11.576;2024-01-30T11:48:04;96927.38;;;11.07;36.90
81608;BME280;71022;48.122;11.576;2024-01-30T11:50:33;96937.56;;;11.15;37.68
81608;BME280;71022;48.122;11.576;2024-01-30T11:53:02;96934.66;;;11.20;37.30
81608;BME280;71022;48.122;11.576;2024-01-30T11:55:30;96933.50;;;11.30;37.60
81608;BME280;71022;48.122;11.576;2024-01-30T11:58:01;96931.09;;;11.37;37.80
81608;BME280;71022;48.122;11.576;2024-01-30T12:00:29;96933.50;;;11.38;36.94
81608;BME280;71022;48.122;11.576;2024-01-30T12:02:58;96928.78;;;11.47;37.15
81608;BME280;71022;48.122;11.576;2024-01-30T12:05:28;96922.47;;;11.55;37.31
81608;BME280;71022;48.122;11.576;2024-01-30T12:07:56;96921.00;;;11.66;37.00
81608;BME280;71022;48.122;11.576;2024-01-30T12:10:27;96919.38;;;11.65;36.32
81608;BME280;71022;48.122;11.576;2024-01-30T12:12:56;96915.19;;;11.77;36.49
81608;BME280;71022;48.122;11.576;2024-01-30T12:15:24;96913.31;;;11.89;36.45
81608;BME280;71022;48.122;11.576;2024-01-30T12:17:52;96911.84;;;11.92;35.46
81608;BME280;71022;48.122;11.576;2024-01-30T12:20:30;96907.78;;;11.98;34.84
81608;BME280;71022;48.122;11.576;2024-01-30T12:22:57;96904.56;;;11.96;34.74
81608;BME280;71022;48.122;11.576;2024-01-30T12:25:25;96904.88;;;12.03;34.66
81608;BME280;71022;48.122;11.576;2024-01-30T12:27:52;96903.16;;;12.19;35.05
81608;BME280;71022;48.122;11.576;2024-01-30T12:30:20;96900.91;;;12.21;35.06
81608;BME280;71022;48.122;11.576;2024-01-30T12:32:50;96902.88;;;12.12;34.32
81608;BME280;71022;48.122;11.576;2024-01-30T12:35:19;96893.84;;;12.03;34.27
81608;BME280;71022;48.122;11.576;2024-01-30T12:37:48;96895.34;;;12.00;34.54
81608;BME280;71022;48.122;11.576;2024-01-30T12:40:16;96891.56;;;12.05;34.87
81608;BME280;71022;48.122;11.576;2024-01-30T12:42:46;96898.00;;;12.17;34.55
81608;BME280;71022;48.122;11.576;2024-01-30T12:45:16;96882.75;;;12.20;34.59
81608;BME280;71022;48.122;11.576;2024-01-30T12:47:47;96882.28;;;12.18;34.32
81608;BME280;71022;48.122;11.576;2024-01-30T12:50:15;96875.91;;;12.26;34.38
81608;BME280;71022;48.122;11.576;2024-01-30T12:52:46;96875.03;;;12.34;34.45
81608;BME280;71022;48.122;11.576;2024-01-30T12:55:16;96874.88;;;12.39;34.19
81608;BME280;71022;48.122;11.576;2024-01-30T12:57:44;96874.72;;;12.36;34.14
81608;BME280;71022;48.122;11.576;2024-01-30T13:00:11;96878.22;;;12.45;34.53
81608;BME280;71022;48.122;11.576;2024-01-30T13:02:39;96873.13;;;12.55;34.48
81608;BME280;71022;48.122;11.576;2024-01-30T13:05:06;96870.84;;;12.57;34.27
81608;BME280;71022;48.122;11.576;2024-01-30T13:07:35;96869.31;;;12.68;33.81